createdAt,value
2019-02-21T00:01:45.843Z,10.90
2019-02-21T00:04:25.593Z,12.20
2019-02-21T00:07:05.767Z,12.43
2019-02-21T00:09:46.210Z,9.77
2019-02-21T00:12:26.341Z,10.17
2019-02-21T00:15:06.512Z,9.70
2019-02-21T00:17:46.519Z,12.23
2019-02-21T00:20:26.744Z,11.37
2019-02-21T00:23:06.799Z,10.43
2019-02-21T00:25:47.028Z,17.20
2019-02-21T00:28:27.450Z,13.23
2019-02-21T00:31:07.517Z,10.53
2019-02-21T00:33:47.717Z,11.13
2019-02-21T00:36:27.844Z,11.77
2019-02-21T00:39:07.961Z,13.47
2019-02-21T00:41:47.977Z,11.37
2019-02-21T00:44:28.214Z,8.87
2019-02-21T00:47:08.332Z,10.90
2019-02-21T00:49:48.501Z,11.07
2019-02-21T00:52:31.319Z,11.70
2019-02-21T00:55:10.816Z,12.83
2019-02-21T00:57:51.004Z,11.63
2019-02-21T01:00:31.043Z,11.87
2019-02-21T01:03:11.627Z,10.20
2019-02-21T01:05:51.722Z,10.87
2019-02-21T01:08:31.845Z,11.17
2019-02-21T01:11:12.582Z,10.87
2019-02-21T01:13:40.272Z,11.83
2019-02-21T01:19:20.152Z,11.83
2019-02-21T01:22:07.195Z,9.87
2019-02-21T01:24:47.643Z,13.37
2019-02-21T01:27:27.643Z,9.60
2019-02-21T01:33:06.593Z,9.40
2019-02-21T01:35:46.837Z,6.67
2019-02-21T01:38:26.636Z,11.90
2019-02-21T01:41:06.655Z,7.67
2019-02-21T01:43:46.675Z,8.43
2019-02-21T01:46:26.731Z,12.07
2019-02-21T01:49:06.578Z,8.53
2019-02-21T01:51:46.592Z,8.73
2019-02-21T01:54:26.941Z,10.43
2019-02-21T01:57:06.716Z,8.60
2019-02-21T01:59:47.096Z,10.80
2019-02-21T02:02:27.241Z,10.10
2019-02-21T02:07:51.104Z,10.00
2019-02-21T02:10:38.316Z,13.30
2019-02-21T02:13:24.705Z,9.30
2019-02-21T02:16:00.981Z,12.93
2019-02-21T02:18:41.163Z,15.47
2019-02-21T02:21:21.144Z,10.47
2019-02-21T02:24:01.229Z,12.47
2019-02-21T02:26:41.420Z,14.77
2019-02-21T02:29:21.343Z,11.57
2019-02-21T02:32:01.451Z,8.90
2019-02-21T02:34:41.713Z,11.63
2019-02-21T02:37:21.830Z,10.90
2019-02-21T02:40:01.944Z,9.43
2019-02-21T02:42:42.253Z,8.17
2019-02-21T02:45:22.318Z,8.87
2019-02-21T02:48:02.344Z,11.70
2019-02-21T02:50:42.693Z,9.57
2019-02-21T02:53:22.446Z,10.27
2019-02-21T02:56:02.510Z,10.73
2019-02-21T02:58:45.314Z,11.60
2019-02-21T03:01:34.295Z,10.00
2019-02-21T03:04:06.713Z,12.60
2019-02-21T03:06:46.549Z,10.37
2019-02-21T03:09:26.469Z,10.17
2019-02-21T03:12:06.558Z,13.33
2019-02-21T03:14:34.381Z,8.83
2019-02-21T03:17:21.412Z,8.90
2019-02-21T03:20:01.024Z,10.13
2019-02-21T03:22:41.108Z,10.20
2019-02-21T03:25:21.062Z,8.70
2019-02-21T03:28:01.142Z,8.80
2019-02-21T03:30:41.286Z,9.13
2019-02-21T03:33:21.368Z,9.97
2019-02-21T03:36:01.559Z,9.87
2019-02-21T03:38:42.090Z,11.87
2019-02-21T03:41:21.901Z,10.90
2019-02-21T03:44:02.343Z,11.30
2019-02-21T03:46:42.508Z,11.27
2019-02-21T03:49:22.575Z,8.90
2019-02-21T03:52:03.064Z,10.20
2019-02-21T03:54:42.861Z,9.20
2019-02-21T03:57:23.036Z,10.23
2019-02-21T04:00:03.125Z,12.57
2019-02-21T04:02:43.260Z,8.90
2019-02-21T04:05:23.254Z,9.80
2019-02-21T04:08:03.295Z,10.40
2019-02-21T04:10:43.342Z,10.63
2019-02-21T04:13:23.489Z,9.43
2019-02-21T04:16:03.831Z,10.73
2019-02-21T04:18:43.882Z,11.13
2019-02-21T04:21:23.921Z,9.83
2019-02-21T04:24:04.021Z,11.57
2019-02-21T04:26:44.550Z,11.37
2019-02-21T04:29:24.753Z,13.43
2019-02-21T04:32:16.142Z,11.43
2019-02-21T04:34:47.020Z,10.40
2019-02-21T04:37:27.112Z,8.87
2019-02-21T04:40:07.185Z,9.83
2019-02-21T04:42:47.293Z,11.20
2019-02-21T04:45:27.259Z,11.37
2019-02-21T04:48:08.738Z,9.43
2019-02-21T04:50:48.637Z,11.03
2019-02-21T04:53:28.906Z,10.87
2019-02-21T04:59:21.396Z,12.70
2019-02-21T05:02:01.438Z,10.23
2019-02-21T05:04:41.716Z,11.80
2019-02-21T05:07:21.920Z,9.97
2019-02-21T05:10:02.092Z,12.17
2019-02-21T05:12:42.425Z,9.87
2019-02-21T05:15:22.244Z,9.23
2019-02-21T05:18:02.537Z,8.87
2019-02-21T05:20:42.544Z,8.37
2019-02-21T05:23:22.720Z,8.03
2019-02-21T05:26:02.646Z,8.67
2019-02-21T05:28:42.744Z,10.33
2019-02-21T05:31:48.136Z,9.47
2019-02-21T05:34:35.266Z,11.20
2019-02-21T05:37:22.436Z,9.10
2019-02-21T05:40:28.905Z,10.77
2019-02-21T05:43:31.016Z,8.70
2019-02-21T05:46:32.380Z,10.03
2019-02-21T05:49:06.204Z,10.43
2019-02-21T05:51:50.767Z,9.80
2019-02-21T05:54:49.778Z,13.57
2019-02-21T05:57:49.350Z,10.77
2019-02-21T06:03:51.409Z,10.63
2019-02-21T06:09:50.069Z,9.10
2019-02-21T06:12:49.232Z,11.17
2019-02-21T06:15:37.304Z,9.33
2019-02-21T06:18:36.286Z,13.47
2019-02-21T06:24:36.586Z,9.97
2019-02-21T06:27:23.552Z,9.63
2019-02-21T06:30:26.228Z,13.73
2019-02-21T06:33:06.076Z,13.33
2019-02-21T06:35:45.963Z,12.67
2019-02-21T06:38:26.308Z,19.07
2019-02-21T06:41:07.630Z,10.67
2019-02-21T06:43:47.782Z,10.97
2019-02-21T06:46:28.169Z,9.90
2019-02-21T06:49:07.945Z,16.67
2019-02-21T06:51:47.956Z,20.30
2019-02-21T06:54:28.269Z,15.00
2019-02-21T06:57:08.057Z,16.40
2019-02-21T06:59:48.169Z,11.10
2019-02-21T07:02:28.338Z,8.80
2019-02-21T07:05:08.624Z,10.93
2019-02-21T07:07:36.232Z,9.90
2019-02-21T07:13:26.442Z,10.93
2019-02-21T07:16:01.733Z,10.63
2019-02-21T07:18:42.069Z,11.60
2019-02-21T07:21:22.041Z,8.60
2019-02-21T07:24:02.226Z,8.83
2019-02-21T07:26:42.885Z,9.17
2019-02-21T07:29:22.638Z,8.37
2019-02-21T07:32:02.988Z,13.23
2019-02-21T07:37:42.434Z,12.20
2019-02-21T07:40:22.056Z,12.17
2019-02-21T07:43:02.041Z,9.13
2019-02-21T07:45:42.562Z,14.83
2019-02-21T07:48:22.436Z,9.00
2019-02-21T07:51:02.785Z,8.60
2019-02-21T07:53:43.069Z,15.80
2019-02-21T07:56:23.413Z,11.87
2019-02-21T07:59:03.418Z,19.43
2019-02-21T08:01:43.559Z,21.47
2019-02-21T08:04:23.652Z,16.13
2019-02-21T08:07:03.771Z,21.13
2019-02-21T08:09:44.059Z,19.93
2019-02-21T08:12:24.163Z,23.20
2019-02-21T08:15:04.235Z,12.23
2019-02-21T08:17:31.845Z,12.17
2019-02-21T08:20:18.904Z,13.37
2019-02-21T08:22:59.093Z,29.13
2019-02-21T08:25:39.364Z,27.47
2019-02-21T08:28:19.555Z,25.43
2019-02-21T08:31:00.645Z,27.10
2019-02-21T08:34:04.273Z,16.13
2019-02-21T08:36:45.460Z,14.07
2019-02-21T08:39:26.379Z,12.40
2019-02-21T08:42:07.538Z,15.53
2019-02-21T08:44:47.711Z,10.43
2019-02-21T08:47:27.966Z,12.03
2019-02-21T08:50:07.824Z,10.47
2019-02-21T08:52:48.034Z,12.83
2019-02-21T08:55:28.163Z,15.57
2019-02-21T08:58:08.146Z,25.13
2019-02-21T09:00:48.145Z,21.20
2019-02-21T09:03:28.391Z,13.43
2019-02-21T09:06:08.612Z,13.87
2019-02-21T09:08:48.876Z,25.20
2019-02-21T09:11:29.176Z,9.87
2019-02-21T09:13:57.668Z,10.10
2019-02-21T09:16:44.731Z,9.93
2019-02-21T09:19:31.742Z,12.20
2019-02-21T09:22:18.756Z,15.23
2019-02-21T09:24:59.205Z,13.67
2019-02-21T09:27:39.930Z,11.57
2019-02-21T09:30:19.806Z,13.97
2019-02-21T09:32:59.814Z,11.80
2019-02-21T09:35:39.907Z,14.23
2019-02-21T09:38:20.349Z,10.80
2019-02-21T09:41:00.513Z,16.57
2019-02-21T09:43:40.481Z,14.67
2019-02-21T09:46:22.071Z,11.40
2019-02-21T09:49:03.052Z,13.30
2019-02-21T09:51:42.921Z,14.40
2019-02-21T09:54:22.942Z,17.60
2019-02-21T10:00:14.720Z,13.47
2019-02-21T10:02:56.716Z,12.07
2019-02-21T10:05:36.545Z,17.67
2019-02-21T10:08:16.661Z,11.73
2019-02-21T10:10:56.642Z,11.40
2019-02-21T10:13:36.822Z,16.70
2019-02-21T10:16:16.759Z,14.27
2019-02-21T10:18:56.623Z,14.10
2019-02-21T10:21:36.833Z,15.57
2019-02-21T10:24:16.967Z,14.30
2019-02-21T10:26:57.192Z,12.33
2019-02-21T10:29:37.364Z,15.33
2019-02-21T10:32:17.605Z,13.07
2019-02-21T10:34:57.641Z,13.20
2019-02-21T10:37:37.864Z,19.73
2019-02-21T10:40:17.995Z,11.93
2019-02-21T10:42:58.176Z,14.60
2019-02-21T10:45:47.442Z,17.90
2019-02-21T10:48:20.186Z,19.00
2019-02-21T10:51:00.409Z,28.17
2019-02-21T10:53:40.397Z,25.13
2019-02-21T10:56:20.377Z,21.43
2019-02-21T10:59:00.287Z,21.73
2019-02-21T11:01:40.452Z,22.87
2019-02-21T11:04:20.542Z,19.67
2019-02-21T11:06:48.211Z,24.53
2019-02-21T11:09:35.236Z,22.85
2019-02-21T11:12:22.270Z,22.62
2019-02-21T11:15:02.558Z,24.70
2019-02-21T11:17:42.515Z,23.57
2019-02-21T11:20:22.434Z,23.25
2019-02-21T11:23:02.496Z,23.10
2019-02-21T11:25:42.444Z,22.45
2019-02-21T11:28:22.314Z,21.87
2019-02-21T11:30:49.943Z,24.12
2019-02-21T11:33:36.970Z,22.00
2019-02-21T11:36:24.383Z,21.75
2019-02-21T11:39:04.585Z,22.10
2019-02-21T11:41:42.803Z,22.67
2019-02-21T11:44:22.389Z,22.85
2019-02-21T11:47:02.480Z,21.20
2019-02-21T11:49:42.946Z,19.90
2019-02-21T11:52:22.757Z,21.23
2019-02-21T11:55:02.774Z,20.37
2019-02-21T11:57:31.248Z,20.25
2019-02-21T11:59:58.828Z,19.75
2019-02-21T12:02:26.500Z,19.27
2019-02-21T12:04:54.116Z,19.05
2019-02-21T12:07:21.749Z,20.00
2019-02-21T12:09:49.360Z,22.30
2019-02-21T12:12:17.096Z,17.60
2019-02-21T12:14:45.507Z,16.80
2019-02-21T12:17:13.131Z,17.37
2019-02-21T12:19:40.700Z,18.07
2019-02-21T12:22:08.291Z,18.23
2019-02-21T12:24:35.916Z,19.27
2019-02-21T12:27:03.597Z,17.87
2019-02-21T12:29:31.225Z,19.73
2019-02-21T12:32:18.213Z,19.95
2019-02-21T12:34:57.985Z,20.68
2019-02-21T12:37:37.770Z,19.00
2019-02-21T12:40:18.164Z,19.27
2019-02-21T12:42:58.144Z,18.98
2019-02-21T12:45:38.064Z,18.73
2019-02-21T12:48:18.180Z,19.15
2019-02-21T12:50:58.230Z,19.70
2019-02-21T12:53:38.709Z,19.23
2019-02-21T12:56:18.702Z,20.62
2019-02-21T12:58:58.577Z,18.02
2019-02-21T13:01:38.633Z,18.82
2019-02-21T13:04:19.047Z,18.23
2019-02-21T13:06:58.929Z,19.12
2019-02-21T13:09:39.007Z,20.55
2019-02-21T13:12:18.834Z,20.45
2019-02-21T13:14:58.944Z,20.60
2019-02-21T13:17:39.068Z,20.08
2019-02-21T13:20:19.291Z,18.65
2019-02-21T13:22:59.312Z,18.90
2019-02-21T13:25:26.988Z,18.90
2019-02-21T13:28:14.036Z,18.37
2019-02-21T13:31:01.047Z,16.55
2019-02-21T13:33:41.026Z,16.12
2019-02-21T13:36:20.800Z,16.35
2019-02-21T13:39:01.345Z,15.65
2019-02-21T13:41:41.087Z,15.38
2019-02-21T13:44:21.253Z,16.90
2019-02-21T13:46:48.905Z,15.43
2019-02-21T13:49:36.278Z,16.42
2019-02-21T13:52:23.360Z,18.35
2019-02-21T13:55:03.284Z,18.40
2019-02-21T13:57:43.823Z,17.30
2019-02-21T14:00:23.637Z,11.70
2019-02-21T14:03:04.703Z,14.15
2019-02-21T14:05:45.014Z,16.52
2019-02-21T14:08:25.357Z,14.50
2019-02-21T14:11:06.072Z,15.30
2019-02-21T14:13:46.095Z,17.45
2019-02-21T14:16:15.561Z,13.53
2019-02-21T14:19:02.576Z,17.92
2019-02-21T14:21:49.672Z,12.95
2019-02-21T14:24:17.532Z,13.85
2019-02-21T14:27:04.569Z,17.00
2019-02-21T14:29:51.577Z,20.12
2019-02-21T14:32:19.276Z,14.60
2019-02-21T14:35:06.865Z,15.20
2019-02-21T14:37:47.293Z,18.92
2019-02-21T14:40:27.137Z,16.30
2019-02-21T14:43:07.392Z,15.80
2019-02-21T14:45:47.354Z,18.32
2019-02-21T14:48:27.705Z,13.72
2019-02-21T14:51:07.412Z,16.35
2019-02-21T14:53:47.758Z,22.05
2019-02-21T14:56:27.826Z,17.60
2019-02-21T14:59:07.901Z,20.45
2019-02-21T15:01:48.091Z,17.52
2019-02-21T15:04:28.188Z,18.35
2019-02-21T15:07:09.001Z,18.40
2019-02-21T15:09:49.172Z,16.82
2019-02-21T15:12:29.554Z,17.80
2019-02-21T15:15:09.709Z,20.05
2019-02-21T15:17:49.840Z,18.12
2019-02-21T15:20:36.978Z,16.15
2019-02-21T15:23:01.634Z,20.88
2019-02-21T15:25:48.688Z,19.55
2019-02-21T15:28:35.718Z,18.92
2019-02-21T15:31:16.268Z,21.97
2019-02-21T15:33:56.356Z,20.20
2019-02-21T15:36:38.556Z,20.48
2019-02-21T15:39:18.795Z,19.07
2019-02-21T15:41:58.790Z,18.55
2019-02-21T15:44:39.035Z,19.73
2019-02-21T15:47:19.180Z,21.40
2019-02-21T15:49:59.435Z,19.30
2019-02-21T15:52:39.636Z,22.33
2019-02-21T15:55:19.877Z,21.63
2019-02-21T15:58:03.880Z,26.40
2019-02-21T16:00:42.337Z,28.60
2019-02-21T16:03:22.184Z,24.27
2019-02-21T16:09:15.416Z,22.93
2019-02-21T16:11:46.093Z,21.17
2019-02-21T16:14:26.581Z,25.40
2019-02-21T16:17:06.131Z,20.70
2019-02-21T16:19:46.129Z,20.33
2019-02-21T16:22:26.341Z,20.93
2019-02-21T16:25:06.455Z,22.67
2019-02-21T16:27:46.513Z,18.60
2019-02-21T16:30:27.126Z,19.37
2019-02-21T16:33:06.846Z,25.40
2019-02-21T16:35:47.353Z,20.67
2019-02-21T16:38:27.140Z,24.13
2019-02-21T16:44:07.124Z,20.77
2019-02-21T16:46:47.181Z,19.80
2019-02-21T16:49:27.628Z,17.73
2019-02-21T16:52:07.853Z,15.00
2019-02-21T16:54:47.753Z,15.73
2019-02-21T16:57:27.804Z,17.13
2019-02-21T17:00:07.675Z,11.43
2019-02-21T17:02:47.850Z,16.80
2019-02-21T17:05:28.430Z,16.63
2019-02-21T17:08:09.784Z,17.47
2019-02-21T17:10:50.210Z,16.30
2019-02-21T17:13:30.154Z,12.77
2019-02-21T17:16:10.170Z,12.90
2019-02-21T17:18:50.427Z,11.10
2019-02-21T17:21:30.930Z,19.73
2019-02-21T17:24:10.813Z,22.73
2019-02-21T17:26:50.808Z,19.07
2019-02-21T17:29:28.956Z,16.53
2019-02-21T17:32:09.483Z,20.20
2019-02-21T17:34:49.704Z,18.87
2019-02-21T17:37:29.657Z,18.70
2019-02-21T17:40:09.845Z,17.90
2019-02-21T17:42:49.879Z,11.50
2019-02-21T17:45:30.421Z,15.50
2019-02-21T17:47:58.233Z,14.53
2019-02-21T17:50:45.288Z,16.23
2019-02-21T17:53:32.358Z,14.83
2019-02-21T17:56:19.741Z,18.07
2019-02-21T17:58:59.977Z,16.70
2019-02-21T18:01:40.011Z,14.00
2019-02-21T18:04:20.161Z,14.73
2019-02-21T18:09:58.585Z,14.57
2019-02-21T18:12:38.709Z,16.30
2019-02-21T18:15:18.894Z,19.90
2019-02-21T18:17:59.189Z,12.43
2019-02-21T18:20:39.155Z,12.17
2019-02-21T18:23:19.304Z,17.47
2019-02-21T18:25:59.499Z,15.97
2019-02-21T18:28:39.493Z,13.37
2019-02-21T18:31:19.778Z,12.23
2019-02-21T18:34:00.043Z,18.10
2019-02-21T18:36:40.236Z,16.33
2019-02-21T18:39:20.306Z,14.90
2019-02-21T18:41:48.403Z,13.10
2019-02-21T18:44:35.442Z,22.03
2019-02-21T18:47:22.514Z,19.63
2019-02-21T18:50:02.158Z,14.67
2019-02-21T18:52:42.499Z,15.43
2019-02-21T18:55:22.494Z,19.27
2019-02-21T18:57:50.435Z,20.73
2019-02-21T19:00:37.478Z,17.17
2019-02-21T19:03:24.655Z,20.67
2019-02-21T19:06:02.852Z,18.43
2019-02-21T19:08:49.877Z,18.37
2019-02-21T19:11:29.568Z,14.93
2019-02-21T19:14:09.789Z,13.67
2019-02-21T19:16:50.075Z,17.07
2019-02-21T19:19:31.105Z,18.97
2019-02-21T19:22:11.403Z,15.93
2019-02-21T19:24:51.547Z,15.83
2019-02-21T19:27:37.161Z,18.67
2019-02-21T19:30:14.600Z,13.93
2019-02-21T19:32:54.965Z,22.63
2019-02-21T19:35:35.220Z,16.00
2019-02-21T19:38:15.313Z,18.57
2019-02-21T19:40:55.592Z,16.33
2019-02-21T19:43:35.983Z,18.73
2019-02-21T19:46:16.249Z,13.03
2019-02-21T19:49:03.416Z,15.70
2019-02-21T19:51:50.558Z,16.13
2019-02-21T19:54:30.896Z,17.40
2019-02-21T19:57:11.355Z,12.20
2019-02-21T19:59:52.487Z,14.17
2019-02-21T20:02:32.348Z,17.60
2019-02-21T20:05:13.774Z,15.30
2019-02-21T20:07:53.651Z,15.47
2019-02-21T20:10:33.941Z,13.17
2019-02-21T20:13:14.696Z,16.40
2019-02-21T20:15:54.959Z,13.30
2019-02-21T20:18:35.165Z,13.47
2019-02-21T20:21:15.106Z,16.33
2019-02-21T20:23:55.262Z,13.50
2019-02-21T20:26:35.307Z,15.20
2019-02-21T20:29:15.521Z,17.40
2019-02-21T20:31:55.895Z,16.73
2019-02-21T20:34:23.752Z,13.30
2019-02-21T20:37:10.879Z,17.67
2019-02-21T20:39:58.011Z,14.03
2019-02-21T20:42:40.648Z,14.30
2019-02-21T20:45:21.069Z,15.80
2019-02-21T20:48:01.340Z,14.90
2019-02-21T20:50:41.308Z,15.67
2019-02-21T20:53:21.299Z,15.27
2019-02-21T20:56:01.505Z,16.87
2019-02-21T20:58:41.684Z,15.60
2019-02-21T21:04:20.161Z,14.60
2019-02-21T21:07:00.845Z,14.83
2019-02-21T21:09:29.197Z,16.03
2019-02-21T21:12:16.281Z,18.70
2019-02-21T21:15:03.321Z,13.10
2019-02-21T21:17:46.092Z,13.57
2019-02-21T21:20:26.110Z,14.23
2019-02-21T21:23:05.996Z,13.80
2019-02-21T21:25:46.101Z,17.43
2019-02-21T21:28:26.183Z,13.43
2019-02-21T21:30:53.956Z,18.60
2019-02-21T21:33:21.746Z,15.23
2019-02-21T21:36:08.789Z,14.13
2019-02-21T21:38:54.197Z,11.37
2019-02-21T21:41:30.201Z,12.33
2019-02-21T21:44:10.434Z,13.70
2019-02-21T21:46:50.645Z,14.60
2019-02-21T21:49:31.084Z,13.17
2019-02-21T21:52:11.171Z,15.17
2019-02-21T21:54:51.255Z,19.47
2019-02-21T21:57:31.109Z,21.00
2019-02-21T22:00:11.071Z,11.53
2019-02-21T22:02:51.548Z,17.37
2019-02-21T22:08:32.914Z,20.77
2019-02-21T22:11:12.962Z,15.03
2019-02-21T22:13:53.199Z,15.60
2019-02-21T22:16:33.156Z,19.13
2019-02-21T22:19:13.313Z,11.53
2019-02-21T22:21:53.832Z,14.30
2019-02-21T22:24:34.446Z,13.07
2019-02-21T22:27:02.231Z,15.97
2019-02-21T22:29:49.337Z,18.63
2019-02-21T22:32:36.410Z,14.03
2019-02-21T22:35:16.509Z,17.83
2019-02-21T22:37:56.822Z,13.63
2019-02-21T22:40:36.994Z,13.50
2019-02-21T22:43:17.146Z,11.77
2019-02-21T22:45:57.233Z,15.87
2019-02-21T22:48:46.920Z,14.00
2019-02-21T22:51:19.479Z,17.73
2019-02-21T22:54:02.403Z,15.73
2019-02-21T22:59:41.192Z,19.13
2019-02-21T23:02:21.005Z,16.50
2019-02-21T23:05:01.361Z,14.47
2019-02-21T23:07:41.397Z,15.87
2019-02-21T23:10:21.283Z,20.00
2019-02-21T23:13:01.568Z,11.73
2019-02-21T23:15:41.899Z,17.87
2019-02-21T23:18:21.556Z,12.90
2019-02-21T23:21:01.649Z,11.63
2019-02-21T23:23:41.769Z,16.00
2019-02-21T23:26:22.260Z,12.60
2019-02-21T23:29:02.153Z,18.67
2019-02-21T23:31:42.457Z,13.50
2019-02-21T23:37:19.579Z,11.90
2019-02-21T23:39:59.745Z,11.43
2019-02-21T23:42:40.208Z,16.53
2019-02-21T23:45:20.191Z,15.13
2019-02-21T23:48:00.252Z,17.07
2019-02-21T23:50:27.975Z,12.50
2019-02-21T23:53:15.299Z,15.07
2019-02-21T23:56:02.374Z,18.43
2019-02-21T23:58:42.732Z,13.63
